DRZA

Details ICAO DRZA (AJY)
Name MANU DAYAK
Region Niger
Timezone Africa/Niamey (UTC+1.0)
Plans Departing 5
Arriving 10
Stats Elevation 1,657 ft / 505 m (AMSL)
Location 16.965965° 8.000155°
Runways 1
Magnetic Variation 0.429° E
Sunrise 2017-12-17 05:51:56 UTC / 2017-12-17 06:51:56 Local
Sunset 2017-12-17 16:59:01 UTC / 2017-12-17 17:59:01 Local
Advertisement - Login to hide

Runways

ID Width Length Bearing (true) Bearing (mag) Surface Threshold Offset Overrun Length
07 98 ft / 30 m 9,857 ft / 3,005 m 68.06° 67.63° Asphalt 0 ft / 0 m 328 ft / 100 m
25 98 ft / 30 m 9,857 ft / 3,005 m 248.07° 247.64° Asphalt 0 ft / 0 m 328 ft / 100 m

Map

Weather


0- 5 10 15 20 25 30 35+ Temperature / ° C

Clouds and Precipitation
Forecast for 2017-12-17 12:00 UTC. Updated an hour ago

Ground ~20,000 ft ~40,000 ft Winds

METAR

DRZA 170800Z 12012KT CAVOK 23/M01 Q1016

TAF

TAF DRZA 170500Z 1706/1806 08010KT 8000 NSC TEMPO 1708/1714 12020KT 4000 BLDU

Frequencies

Tower 118.10 MHz AGADES TWR
Warning: Do not use this data for real-world aviation or navigation. No guarantee of current accuracy is given.